首页
METAR-TAF:

METAR-TAF

机场 :

Bückeburg, 德国

纬度: 52-17N, 经度: 009-05E, 海拔: 70米

当前天气观测

该预报发布于22分钟前的02:20 UTC
风速4节,风向南转南东
温度 9°C
湿度 76%
气压 995 hPa
能见度10公里或以上

METAR: ETHB 260220Z AUTO 15004KT 9999 // ////// 09/05 Q0995 ///

时间: 04:42 (02:42 UTC)

预报

该预报发布于19小时和35分钟前的07:07 UTC
预报有效从25日的 08点(UTC)到 25日的 17点(UTC)
风速10节,风向西转西南
能见度10公里或以上
少量云层高于2000英尺
散云层高于8000英尺
短暂存在
从 25日的 08点(UTC)到 25日的 10点(UTC)
风速12节,风向西转西南
能见度10公里或以上
散云层高于1500英尺
多云层高于3000英尺

TAF: ETHB 250707Z 2508/2517 25010KT 9999 NSW FEW020 SCT080 TEMPO 2508/2510 24012KT 9999 NSW SCT015 BKN030

超过4000个机场的气象观测和天气预报(METAR&TAF报告)。

可查询的气象台以黄色和红色小点在地图上表示。

将鼠标移到小点上方,可查看气象台名称。

然后点击查看天气观测和预报。

如需切换地图:点击带黑十字的绿色按钮放大地图;点击带横线的绿色按钮缩小地图;或者点击绿色箭头查看邻近地区的地图。


METAR-TAF: